Time;durP1;ratioP1;P1;durP2;ratioP2;P2;SDS_P1;SDS_P2;PMS_P1;PMS_P2;Temp;Humidity;BMP_temperature;BMP_pressure;BME280_temperature;BME280_humidity;BME280_pressure;Samples;Min_cycle;Max_cycle;Signal;HPM_P1;HPM_P2
2022/12/04 00:01:36;;;;;;;18.98;14.18;;;10.80;80.50;;;;;;5035725;28;20033;-80
2022/12/04 00:04:01;;;;;;;18.70;13.95;;;10.80;80.50;;;;;;5035398;28;20067;-80
2022/12/04 00:06:28;;;;;;;19.50;14.18;;;10.70;80.50;;;;;;5034899;28;20021;-79
2022/12/04 00:08:54;;;;;;;18.23;13.60;;;10.70;80.50;;;;;;5034675;28;20025;-79
2022/12/04 00:11:24;;;;;;;21.27;14.88;;;10.80;80.60;;;;;;5034672;28;20123;-79
2022/12/04 00:13:49;;;;;;;19.63;14.25;;;10.70;80.50;;;;;;5035119;28;20021;-79
2022/12/04 00:16:18;;;;;;;19.25;14.32;;;10.70;80.50;;;;;;5034423;28;20029;-79
2022/12/04 00:18:44;;;;;;;18.70;14.02;;;10.70;80.50;;;;;;5035430;28;20029;-80
2022/12/04 00:21:12;;;;;;;19.30;14.38;;;10.70;80.50;;;;;;5034127;28;20034;-80
2022/12/04 00:23:38;;;;;;;18.10;13.52;;;10.70;80.50;;;;;;5034016;28;20028;-79
2022/12/04 00:26:07;;;;;;;19.67;14.57;;;10.70;80.50;;;;;;5033268;28;20033;-79
2022/12/04 00:28:33;;;;;;;19.02;14.63;;;10.70;80.60;;;;;;5032725;28;20429;-79
2022/12/04 00:30:59;;;;;;;17.95;14.20;;;10.70;80.50;;;;;;5038888;28;20051;-80
2022/12/04 00:33:25;;;;;;;19.23;14.23;;;10.70;80.50;;;;;;5034520;28;20037;-79
2022/12/04 00:36:02;;;;;;;19.77;14.40;;;10.70;80.50;;;;;;5032838;28;20022;-77
2022/12/04 00:38:28;;;;;;;18.65;13.85;;;10.70;80.60;;;;;;5036893;28;20485;-79
2022/12/04 00:40:54;;;;;;;18.63;13.88;;;10.70;80.60;;;;;;5037801;28;20033;-79
2022/12/04 00:43:20;;;;;;;18.70;13.90;;;10.70;80.50;;;;;;5038045;28;20029;-79
2022/12/04 00:45:46;;;;;;;19.67;13.38;;;10.70;80.60;;;;;;5037989;28;20021;-79
2022/12/04 00:48:12;;;;;;;18.30;13.50;;;10.70;80.50;;;;;;5037862;28;20384;-79
2022/12/04 00:50:37;;;;;;;18.83;13.60;;;10.70;80.50;;;;;;5035821;28;20025;-79
2022/12/04 00:53:03;;;;;;;17.85;13.20;;;10.70;80.50;;;;;;5037915;28;20056;-79
2022/12/04 00:55:29;;;;;;;18.45;14.02;;;10.70;80.50;;;;;;5039445;28;20477;-80
2022/12/04 00:57:54;;;;;;;17.70;13.52;;;10.70;80.50;;;;;;5037606;28;20059;-79
2022/12/04 01:00:20;;;;;;;18.90;14.48;;;10.70;81.00;;;;;;5037968;28;20036;-79
2022/12/04 01:02:45;;;;;;;17.00;12.48;;;10.70;80.50;;;;;;5035946;28;20029;-79
2022/12/04 01:05:11;;;;;;;19.55;14.02;;;10.70;80.50;;;;;;5037189;28;20082;-80
2022/12/04 01:07:37;;;;;;;18.58;13.95;;;10.70;80.50;;;;;;5037530;28;20038;-79
2022/12/04 01:10:04;;;;;;;18.80;14.55;;;10.70;80.50;;;;;;5036724;28;20040;-78
2022/12/04 01:12:30;;;;;;;19.00;14.02;;;10.70;80.50;;;;;;5037739;28;20148;-80
2022/12/04 01:14:55;;;;;;;17.90;13.65;;;10.70;81.10;;;;;;5036349;28;20049;-79
2022/12/04 01:17:21;;;;;;;18.50;13.50;;;10.70;80.50;;;;;;5035836;28;20021;-79
2022/12/04 01:19:46;;;;;;;19.23;14.15;;;10.70;80.50;;;;;;5035570;28;20541;-80
2022/12/04 01:22:12;;;;;;;18.08;13.60;;;10.70;80.50;;;;;;5035448;28;20021;-79
2022/12/04 01:24:38;;;;;;;18.35;13.25;;;10.70;80.50;;;;;;5036465;28;20075;-79
2022/12/04 01:27:03;;;;;;;17.67;13.43;;;10.70;80.50;;;;;;5036896;28;20503;-79
2022/12/04 01:29:29;;;;;;;17.15;12.80;;;10.70;80.50;;;;;;5035392;28;20087;-77
2022/12/04 01:31:54;;;;;;;19.02;14.05;;;10.70;80.50;;;;;;5034823;28;20030;-79
2022/12/04 01:34:20;;;;;;;17.50;13.27;;;10.70;80.50;;;;;;5035246;28;20029;-78
2022/12/04 01:36:45;;;;;;;19.00;13.93;;;10.70;80.50;;;;;;5036520;28;20029;-79
2022/12/04 01:39:11;;;;;;;17.63;13.43;;;10.70;80.60;;;;;;5036175;28;20021;-79
2022/12/04 01:41:36;;;;;;;17.23;12.65;;;10.70;80.80;;;;;;5035847;28;20029;-78
2022/12/04 01:44:25;;;;;;;17.85;13.75;;;10.70;80.60;;;;;;5036453;28;20452;-79
2022/12/04 01:46:58;;;;;;;18.98;13.93;;;10.70;80.50;;;;;;5021486;28;20493;-78
2022/12/04 01:49:43;;;;;;;18.63;13.48;;;10.80;80.50;;;;;;5035209;28;20108;-78
2022/12/04 01:52:17;;;;;;;18.40;13.30;;;10.80;80.40;;;;;;5036325;28;20028;-79
2022/12/04 01:54:50;;;;;;;17.73;13.63;;;10.80;80.40;;;;;;5036338;28;20026;-79
2022/12/04 01:57:21;;;;;;;17.63;13.13;;;10.90;80.40;;;;;;5034919;28;20489;-79
2022/12/04 01:59:58;;;;;;;17.15;13.13;;;10.80;80.30;;;;;;5034928;28;20075;-79
2022/12/04 02:02:29;;;;;;;16.98;11.98;;;10.80;80.40;;;;;;5035117;28;20029;-80
2022/12/04 02:04:55;;;;;;;18.77;14.00;;;10.90;80.40;;;;;;5034991;28;20060;-79
2022/12/04 02:07:21;;;;;;;18.27;13.02;;;10.80;80.20;;;;;;5037517;28;20116;-80
2022/12/04 02:09:52;;;;;;;17.95;13.15;;;10.80;80.30;;;;;;5036762;28;20161;-79
2022/12/04 02:12:31;;;;;;;16.87;12.53;;;10.80;80.50;;;;;;5035294;28;20026;-79
2022/12/04 02:15:18;;;;;;;17.85;13.68;;;10.80;80.50;;;;;;5035407;28;20369;-79
2022/12/04 02:18:06;;;;;;;18.13;13.02;;;10.80;80.50;;;;;;5036094;28;20104;-80
2022/12/04 02:20:50;;;;;;;17.58;13.18;;;10.80;80.60;;;;;;5038000;28;20029;-80
2022/12/04 02:23:27;;;;;;;17.85;13.73;;;10.80;80.70;;;;;;5036817;28;20032;-83
2022/12/04 02:25:55;;;;;;;17.88;13.30;;;10.70;80.60;;;;;;5038532;28;20081;-81
2022/12/04 02:28:44;;;;;;;16.98;12.82;;;10.70;80.60;;;;;;5037877;28;20040;-80
2022/12/04 02:31:16;;;;;;;17.25;13.25;;;10.70;80.70;;;;;;5036622;28;20044;-80
2022/12/04 02:33:49;;;;;;;17.83;13.10;;;10.70;80.80;;;;;;5036154;28;20075;-79
2022/12/04 02:36:21;;;;;;;17.48;13.25;;;10.70;80.70;;;;;;5035884;28;20029;-79
2022/12/04 02:38:57;;;;;;;18.58;13.85;;;10.70;80.70;;;;;;5035691;28;20021;-80
2022/12/04 02:41:28;;;;;;;17.67;13.35;;;10.70;80.70;;;;;;5036362;28;20030;-79
2022/12/04 02:44:20;;;;;;;19.67;14.60;;;10.70;80.80;;;;;;5035803;28;20018;-79
2022/12/04 02:46:53;;;;;;;16.48;12.55;;;10.70;80.70;;;;;;5034973;28;20155;-79
2022/12/04 02:49:24;;;;;;;16.73;12.55;;;10.70;80.80;;;;;;5035209;28;20104;-79
2022/12/04 02:51:52;;;;;;;17.88;13.88;;;10.70;80.80;;;;;;5036233;28;20474;-79
2022/12/04 02:54:38;;;;;;;18.30;13.63;;;10.70;81.30;;;;;;5035832;28;20406;-79
2022/12/04 02:57:08;;;;;;;17.92;13.30;;;10.70;80.80;;;;;;5034883;28;20397;-79
2022/12/04 02:59:40;;;;;;;18.92;13.45;;;10.70;80.80;;;;;;5033254;28;20461;-77
2022/12/04 03:02:22;;;;;;;;;;;10.70;80.80;;;;;;5036112;28;20501;-79
2022/12/04 03:04:49;;;;;;;18.42;13.32;;;10.70;80.80;;;;;;5014979;28;19956;-79
2022/12/04 03:07:30;;;;;;;17.48;13.00;;;10.70;80.80;;;;;;5022763;28;20018;-79
2022/12/04 03:10:04;;;;;;;18.30;13.00;;;10.70;80.80;;;;;;5047965;28;20032;-79
2022/12/04 03:12:49;;;;;;;17.65;12.70;;;10.70;80.80;;;;;;5053282;28;20037;-79
2022/12/04 03:15:23;;;;;;;17.65;13.68;;;10.70;80.80;;;;;;5033752;28;20025;-79
2022/12/04 03:17:56;;;;;;;17.08;12.82;;;10.70;80.80;;;;;;5034738;28;20087;-80
2022/12/04 03:20:23;;;;;;;16.42;11.90;;;10.70;80.80;;;;;;5036025;28;20505;-80
2022/12/04 03:22:54;;;;;;;18.27;13.50;;;10.70;80.80;;;;;;5036167;28;20084;-80
2022/12/04 03:25:24;;;;;;;17.63;13.10;;;10.70;80.80;;;;;;5036049;28;20021;-80
2022/12/04 03:27:58;;;;;;;17.88;13.25;;;10.70;80.80;;;;;;5035231;28;20029;-80
2022/12/04 03:30:24;;;;;;;16.33;12.50;;;10.70;80.80;;;;;;5034058;28;20029;-80
2022/12/04 03:32:59;;;;;;;18.10;13.57;;;10.70;80.80;;;;;;5034094;28;20405;-80
2022/12/04 03:35:27;;;;;;;17.67;13.10;;;10.70;80.80;;;;;;5035971;28;20032;-78
2022/12/04 03:38:34;;;;;;;16.38;12.32;;;10.70;80.80;;;;;;5034051;28;20033;-79
2022/12/04 03:41:26;;;;;;;18.25;12.70;;;10.70;80.80;;;;;;5016952;28;20131;-79
2022/12/04 03:44:00;;;;;;;17.77;13.05;;;10.70;80.80;;;;;;5011773;28;20026;-79
2022/12/04 03:46:40;;;;;;;16.95;12.65;;;10.70;80.80;;;;;;5029841;28;20105;-80
2022/12/04 03:49:15;;;;;;;17.45;12.85;;;10.70;80.80;;;;;;5033523;28;20032;-79
2022/12/04 03:51:53;;;;;;;17.83;12.57;;;10.70;80.70;;;;;;5034590;28;20022;-79
2022/12/04 03:54:32;;;;;;;18.80;13.23;;;10.70;80.70;;;;;;5033962;28;20485;-80
2022/12/04 03:57:03;;;;;;;16.55;11.95;;;10.70;80.80;;;;;;5034251;28;20025;-79
2022/12/04 03:59:39;;;;;;;18.13;12.50;;;10.70;80.80;;;;;;5032677;28;20049;-79
2022/12/04 04:02:08;;;;;;;17.10;12.88;;;10.70;80.80;;;;;;5032606;28;20026;-80
2022/12/04 04:04:37;;;;;;;19.05;12.82;;;10.70;80.80;;;;;;5033119;28;20021;-79
2022/12/04 04:07:14;;;;;;;19.13;13.27;;;10.70;80.80;;;;;;5034193;28;20465;-79
2022/12/04 04:09:44;;;;;;;17.35;12.90;;;10.70;80.70;;;;;;5034160;28;20095;-78
2022/12/04 04:12:14;;;;;;;17.33;12.75;;;10.70;80.70;;;;;;5035349;28;20057;-79
2022/12/04 04:26:07;;;;;;;16.83;11.77;;;10.70;80.70;;;;;;5034158;28;20036;-79
2022/12/04 04:28:36;;;;;;;17.35;13.50;;;10.70;80.80;;;;;;5033668;28;20064;-79
2022/12/04 04:31:08;;;;;;;17.83;12.38;;;10.70;81.30;;;;;;5031854;28;20482;-79
2022/12/04 04:33:40;;;;;;;16.88;12.43;;;10.70;81.00;;;;;;5032080;28;20036;-78
2022/12/04 04:36:34;;;;;;;16.77;12.27;;;10.70;80.80;;;;;;5033717;28;20025;-79
2022/12/04 04:39:29;;;;;;;16.02;11.80;;;10.70;80.80;;;;;;5032388;28;20449;-79
2022/12/04 04:42:06;;;;;;;15.52;11.73;;;10.70;80.70;;;;;;5032562;28;20040;-78
2022/12/04 04:44:56;;;;;;;16.13;11.57;;;10.80;80.70;;;;;;5031941;28;20045;-79
2022/12/04 04:47:31;;;;;;;17.25;12.70;;;10.80;80.60;;;;;;5034084;28;20473;-80
2022/12/04 04:50:01;;;;;;;15.80;10.98;;;10.80;80.50;;;;;;5033462;28;20060;-80
2022/12/04 04:52:27;;;;;;;16.45;12.10;;;10.80;80.50;;;;;;5034540;28;20156;-76
2022/12/04 04:54:54;;;;;;;17.40;12.65;;;10.80;80.40;;;;;;5033498;28;20497;-79
2022/12/04 04:57:34;;;;;;;16.27;12.20;;;10.70;80.40;;;;;;5032029;28;20669;-79
2022/12/04 05:00:04;;;;;;;18.33;12.88;;;10.80;80.50;;;;;;5032854;28;20036;-78
2022/12/04 05:02:31;;;;;;;18.52;12.80;;;10.70;80.60;;;;;;5033031;28;20777;-80
2022/12/04 05:04:56;;;;;;;17.17;12.38;;;10.70;80.60;;;;;;5034588;28;20030;-80
2022/12/04 05:07:22;;;;;;;16.60;12.48;;;10.70;80.70;;;;;;5035490;28;20022;-80
2022/12/04 05:09:47;;;;;;;15.65;11.40;;;10.70;80.70;;;;;;5034526;28;20030;-79
2022/12/04 05:12:13;;;;;;;15.85;12.32;;;10.70;80.70;;;;;;5034982;28;20028;-80
2022/12/04 05:14:38;;;;;;;15.68;11.88;;;10.70;80.80;;;;;;5035849;28;20025;-80
2022/12/04 05:17:05;;;;;;;16.35;11.85;;;10.70;80.80;;;;;;5035339;28;20033;-79
2022/12/04 05:19:52;;;;;;;16.98;12.00;;;10.70;80.80;;;;;;5034522;28;20029;-80
2022/12/04 05:22:24;;;;;;;16.55;12.35;;;10.70;80.80;;;;;;5034374;28;20057;-80
2022/12/04 05:24:50;;;;;;;16.02;11.70;;;10.60;80.80;;;;;;5038367;28;20496;-80
2022/12/04 05:27:16;;;;;;;15.95;11.65;;;10.60;80.70;;;;;;5036910;28;20109;-79
2022/12/04 05:29:41;;;;;;;16.42;11.63;;;10.60;80.80;;;;;;5037748;28;20504;-79
2022/12/04 05:32:07;;;;;;;16.92;12.30;;;10.60;80.80;;;;;;5037291;28;20080;-78
2022/12/04 05:34:33;;;;;;;16.42;11.93;;;10.60;80.80;;;;;;5038427;28;20029;-79
2022/12/04 05:36:58;;;;;;;16.65;12.15;;;10.70;80.80;;;;;;5037986;28;20033;-79
2022/12/04 05:39:24;;;;;;;15.07;11.50;;;10.60;80.80;;;;;;5036216;28;20025;-80
2022/12/04 05:41:49;;;;;;;16.50;12.43;;;10.70;80.80;;;;;;5035798;28;20025;-80
2022/12/04 05:44:15;;;;;;;15.85;11.77;;;10.60;80.80;;;;;;5034320;28;20056;-80
2022/12/04 05:46:40;;;;;;;16.02;11.57;;;10.60;80.80;;;;;;5033393;28;20072;-81
2022/12/04 05:49:06;;;;;;;15.38;11.82;;;10.70;80.80;;;;;;5036664;28;20101;-79
2022/12/04 05:51:31;;;;;;;16.02;11.95;;;10.60;80.80;;;;;;5037449;28;20125;-80
2022/12/04 05:53:57;;;;;;;15.70;11.93;;;10.60;80.80;;;;;;5036434;28;20109;-79
2022/12/04 05:56:22;;;;;;;15.95;11.75;;;10.60;80.80;;;;;;5035947;28;20534;-80
2022/12/04 05:58:48;;;;;;;15.27;11.38;;;10.70;80.80;;;;;;5036004;28;20026;-78
2022/12/04 06:01:20;;;;;;;15.18;11.40;;;10.60;80.80;;;;;;5035908;28;20033;-79
2022/12/04 06:03:46;;;;;;;15.95;10.93;;;10.70;80.80;;;;;;5037682;28;20554;-79
2022/12/04 06:06:20;;;;;;;15.88;11.80;;;10.60;80.80;;;;;;5035697;28;20026;-79
2022/12/04 06:08:46;;;;;;;15.85;11.93;;;10.60;80.80;;;;;;5037373;28;20029;-80
2022/12/04 06:11:17;;;;;;;16.30;12.00;;;10.60;80.80;;;;;;5036476;28;20054;-79
2022/12/04 06:13:44;;;;;;;15.70;11.48;;;10.60;80.80;;;;;;5036579;28;20029;-79
2022/12/04 06:16:22;;;;;;;15.32;11.75;;;10.60;80.70;;;;;;5036180;28;20083;-80
2022/12/04 06:18:53;;;;;;;15.57;11.10;;;10.60;80.70;;;;;;5035195;28;20124;-79
2022/12/04 06:21:20;;;;;;;16.33;11.35;;;10.60;80.70;;;;;;5036433;28;20026;-79
2022/12/04 06:23:46;;;;;;;15.40;11.25;;;10.60;80.60;;;;;;5033229;28;20032;-76
2022/12/04 06:26:12;;;;;;;18.00;12.05;;;10.60;80.60;;;;;;5032270;28;20025;-76
2022/12/04 06:28:37;;;;;;;15.77;11.50;;;10.60;80.50;;;;;;5031113;28;20392;-76
2022/12/04 06:31:06;;;;;;;16.17;11.25;;;10.60;80.50;;;;;;5031526;28;20105;-76
2022/12/04 06:33:32;;;;;;;15.52;10.88;;;10.60;80.50;;;;;;5031939;28;20034;-77
2022/12/04 06:36:03;;;;;;;15.18;11.40;;;10.60;80.50;;;;;;5034296;28;20025;-77
2022/12/04 06:38:29;;;;;;;15.38;11.15;;;10.60;80.40;;;;;;5025561;28;20037;-77
2022/12/04 06:40:55;;;;;;;16.38;11.60;;;10.60;80.50;;;;;;5031441;28;20477;-78
2022/12/04 06:43:21;;;;;;;15.45;11.80;;;10.60;80.40;;;;;;5034944;28;20036;-79
2022/12/04 06:45:46;;;;;;;14.63;10.55;;;10.60;80.50;;;;;;5037402;28;20029;-80
2022/12/04 06:48:12;;;;;;;16.23;11.85;;;10.60;80.50;;;;;;5037768;28;20036;-78
2022/12/04 06:50:37;;;;;;;15.38;11.07;;;10.70;80.60;;;;;;5036821;28;20104;-80
2022/12/04 06:53:03;;;;;;;15.77;11.05;;;10.60;80.50;;;;;;5035505;28;20023;-81
2022/12/04 06:55:28;;;;;;;16.50;12.02;;;10.60;80.40;;;;;;5035517;28;20026;-80
2022/12/04 06:57:54;;;;;;;14.25;10.15;;;10.60;80.50;;;;;;5036746;28;20426;-79
2022/12/04 07:00:20;;;;;;;15.90;11.40;;;10.60;80.40;;;;;;5035200;28;20104;-80
2022/12/04 07:02:45;;;;;;;15.93;11.20;;;10.60;80.40;;;;;;5035674;28;20093;-79
2022/12/04 07:05:11;;;;;;;14.70;11.00;;;10.60;80.40;;;;;;5028312;28;20060;-77
2022/12/04 07:07:36;;;;;;;15.43;10.52;;;10.60;80.40;;;;;;5013869;28;20026;-78
2022/12/04 07:10:03;;;;;;;15.57;11.40;;;10.60;80.40;;;;;;5031169;28;20500;-78
2022/12/04 07:12:29;;;;;;;15.27;10.55;;;10.60;80.40;;;;;;5033345;28;20382;-78
2022/12/04 07:14:54;;;;;;;15.15;11.00;;;10.60;80.40;;;;;;5033780;28;20101;-80
2022/12/04 07:17:20;;;;;;;15.50;10.50;;;10.60;80.50;;;;;;5033418;28;20025;-78
2022/12/04 07:19:45;;;;;;;15.50;11.02;;;10.60;80.60;;;;;;5033290;28;20092;-77
2022/12/04 07:22:11;;;;;;;13.98;9.95;;;10.70;80.60;;;;;;5037042;28;20572;-78
2022/12/04 07:24:36;;;;;;;14.82;11.00;;;10.70;80.50;;;;;;5035527;28;20132;-80
2022/12/04 07:27:03;;;;;;;14.88;10.50;;;10.70;80.60;;;;;;5035105;28;20032;-79
2022/12/04 07:29:28;;;;;;;15.60;11.15;;;10.70;80.50;;;;;;5033155;28;20043;-78
2022/12/04 07:31:54;;;;;;;13.98;10.20;;;10.70;80.50;;;;;;5032074;28;20052;-80
2022/12/04 07:34:19;;;;;;;13.93;10.10;;;10.70;80.40;;;;;;5035145;28;20029;-80
2022/12/04 07:36:45;;;;;;;14.90;10.63;;;10.70;80.30;;;;;;5034803;28;20048;-80
2022/12/04 07:39:10;;;;;;;13.98;9.95;;;10.80;80.40;;;;;;5033300;28;20539;-79
2022/12/04 07:41:36;;;;;;;14.38;10.23;;;10.70;80.30;;;;;;5033066;28;20511;-80
2022/12/04 07:44:02;;;;;;;14.48;10.50;;;10.70;80.30;;;;;;5036045;28;20052;-80
2022/12/04 07:46:28;;;;;;;13.32;9.77;;;10.70;80.30;;;;;;5036179;28;20029;-81
2022/12/04 07:48:55;;;;;;;13.43;9.70;;;10.70;80.40;;;;;;5036282;28;20155;-79
2022/12/04 07:51:22;;;;;;;15.35;9.95;;;10.70;80.50;;;;;;5035113;28;20030;-80
2022/12/04 07:53:50;;;;;;;15.32;10.95;;;10.70;80.50;;;;;;5035208;28;20036;-81
2022/12/04 07:56:16;;;;;;;14.10;10.20;;;10.70;81.10;;;;;;5037018;28;20029;-80
2022/12/04 07:58:42;;;;;;;14.35;9.90;;;10.60;80.60;;;;;;5035661;28;20029;-80
2022/12/04 08:01:14;;;;;;;14.23;10.38;;;10.60;80.60;;;;;;5034743;28;20021;-80
2022/12/04 08:03:40;;;;;;;14.32;10.55;;;10.60;80.70;;;;;;5034071;28;20454;-79
2022/12/04 08:06:07;;;;;;;15.25;10.40;;;10.60;80.70;;;;;;5037473;28;20024;-80
2022/12/04 08:08:33;;;;;;;13.65;9.75;;;10.60;80.60;;;;;;5034212;28;20022;-76
2022/12/04 08:10:59;;;;;;;13.27;9.63;;;10.60;80.70;;;;;;5032253;28;20033;-80
2022/12/04 08:13:25;;;;;;;13.73;10.57;;;10.60;80.70;;;;;;5034683;28;20037;-79
2022/12/04 08:15:51;;;;;;;14.18;10.13;;;10.60;80.70;;;;;;5035562;28;20034;-80
2022/12/04 08:18:17;;;;;;;15.00;10.25;;;10.60;80.80;;;;;;5032394;28;20031;-77
2022/12/04 08:20:43;;;;;;;15.13;9.93;;;10.60;80.80;;;;;;5031270;28;20104;-79
2022/12/04 08:23:08;;;;;;;14.32;9.93;;;10.60;80.80;;;;;;5033877;28;20025;-78
2022/12/04 08:25:38;;;;;;;14.07;10.13;;;10.60;80.70;;;;;;5032705;28;20076;-79
2022/12/04 08:28:03;;;;;;;13.07;10.00;;;10.60;80.80;;;;;;5032983;28;20030;-79
2022/12/04 08:30:29;;;;;;;13.30;9.73;;;10.60;80.70;;;;;;5032460;28;20125;-80
2022/12/04 08:32:54;;;;;;;14.32;9.48;;;10.60;80.70;;;;;;5034405;28;20021;-79
2022/12/04 08:35:20;;;;;;;14.13;9.93;;;10.60;80.70;;;;;;5032916;28;20033;-79
2022/12/04 08:37:46;;;;;;;14.73;9.95;;;10.60;80.70;;;;;;5034109;28;20385;-79
2022/12/04 08:40:12;;;;;;;14.77;10.50;;;10.60;80.70;;;;;;5032796;28;20025;-80
2022/12/04 08:42:37;;;;;;;17.40;10.25;;;10.60;80.80;;;;;;5034323;28;20071;-80
2022/12/04 08:45:03;;;;;;;21.83;11.07;;;10.70;80.10;;;;;;5034800;28;20502;-81
2022/12/04 08:47:29;;;;;;;19.58;10.88;;;10.80;79.20;;;;;;5034983;28;20608;-80
2022/12/04 08:49:54;;;;;;;29.38;11.93;;;10.90;78.50;;;;;;5034528;28;20536;-80
2022/12/04 08:52:20;;;;;;;26.55;11.23;;;11.00;77.60;;;;;;5033951;28;20052;-80
2022/12/04 08:54:45;;;;;;;26.63;11.70;;;11.10;77.40;;;;;;5036153;28;20025;-81
2022/12/04 08:57:11;;;;;;;24.95;11.45;;;11.00;77.40;;;;;;5034673;28;20029;-81
2022/12/04 08:59:36;;;;;;;21.98;10.60;;;11.00;77.90;;;;;;5037451;28;20489;-81
2022/12/04 09:02:02;;;;;;;17.63;11.52;;;10.90;77.90;;;;;;5037121;28;20112;-81
2022/12/04 09:04:27;;;;;;;21.50;11.55;;;10.80;78.30;;;;;;5034344;28;20029;-82
2022/12/04 09:06:53;;;;;;;21.95;11.07;;;10.80;78.60;;;;;;5036561;28;20366;-81
2022/12/04 09:09:18;;;;;;;19.90;10.90;;;10.70;78.80;;;;;;5037523;28;20060;-83
2022/12/04 09:11:45;;;;;;;20.60;12.13;;;10.70;79.00;;;;;;5039378;28;20033;-83
2022/12/04 09:14:10;;;;;;;18.08;11.00;;;10.70;79.00;;;;;;5040287;28;20029;-84
2022/12/04 09:16:36;;;;;;;20.55;10.65;;;10.60;78.90;;;;;;5036609;28;20037;-85
2022/12/04 09:19:03;;;;;;;20.00;11.57;;;10.60;78.80;;;;;;5038328;28;20033;-85
2022/12/04 09:21:28;;;;;;;19.00;11.00;;;10.60;78.90;;;;;;5039563;28;20052;-85
2022/12/04 09:23:54;;;;;;;19.55;11.40;;;10.70;78.90;;;;;;5038814;28;20025;-84
2022/12/04 09:26:24;;;;;;;17.50;10.35;;;10.60;78.90;;;;;;5034325;28;20026;-81
2022/12/04 09:28:51;;;;;;;18.80;10.48;;;10.70;79.60;;;;;;5033285;28;20091;-84
2022/12/04 09:31:17;;;;;;;17.58;11.05;;;10.60;79.10;;;;;;5035992;28;20432;-82
2022/12/04 09:33:43;;;;;;;19.80;11.07;;;10.60;79.20;;;;;;5040420;28;20027;-84
2022/12/04 09:36:14;;;;;;;19.27;10.60;;;10.70;79.30;;;;;;5037376;28;20113;-81
2022/12/04 09:38:42;;;;;;;18.15;9.98;;;10.60;79.20;;;;;;5037669;28;20157;-83
2022/12/04 09:41:30;;;;;;;20.40;10.32;;;10.60;79.30;;;;;;5035422;28;20025;-82
2022/12/04 09:44:30;;;;;;;18.67;11.40;;;10.60;79.50;;;;;;5039823;28;20478;-83
2022/12/04 09:47:01;;;;;;;16.85;10.02;;;10.60;79.60;;;;;;5036014;28;20033;-81
2022/12/04 09:49:35;;;;;;;;;;;10.60;79.50;;;;;;5035719;28;20029;-80
2022/12/04 09:52:06;;;;;;;17.58;9.98;;;10.60;79.30;;;;;;5037347;28;19948;-84
2022/12/04 09:54:39;;;;;;;18.27;11.38;;;10.60;79.50;;;;;;5032248;28;20049;-84
2022/12/04 09:57:20;;;;;;;16.67;10.63;;;10.60;79.50;;;;;;5035307;28;20032;-85
2022/12/04 09:59:48;;;;;;;16.95;10.82;;;10.60;79.70;;;;;;5021488;28;20482;-83
2022/12/04 10:02:28;;;;;;;17.88;11.15;;;10.60;79.70;;;;;;5035110;28;20512;-81
2022/12/04 10:04:54;;;;;;;18.17;11.50;;;10.60;79.50;;;;;;5035352;28;20080;-84
2022/12/04 10:07:47;;;;;;;16.75;10.93;;;10.60;80.00;;;;;;5035165;28;20489;-84
2022/12/04 10:10:35;;;;;;;15.32;10.73;;;10.60;79.50;;;;;;5027433;28;20059;-86
2022/12/04 10:13:28;;;;;;;40.40;11.07;;;10.70;79.70;;;;;;5026562;28;20507;-86
2022/12/04 10:16:13;;;;;;;15.35;10.30;;;10.70;79.60;;;;;;5040476;28;20087;-82
2022/12/04 10:18:59;;;;;;;17.48;10.68;;;10.70;79.60;;;;;;5035051;28;20097;-82
2022/12/04 10:21:40;;;;;;;17.17;10.20;;;10.70;79.60;;;;;;5041048;28;20037;-84
2022/12/04 10:24:31;;;;;;;15.77;10.47;;;10.70;79.60;;;;;;5039534;28;20030;-82
2022/12/04 10:27:02;;;;;;;15.93;10.95;;;10.70;79.50;;;;;;5031962;28;20034;-84
2022/12/04 10:29:34;;;;;;;16.13;11.07;;;10.70;79.60;;;;;;5038090;28;20105;-84
2022/12/04 10:32:19;;;;;;;16.63;10.60;;;10.70;79.60;;;;;;5037337;28;20394;-84
2022/12/04 10:34:47;;;;;;;17.60;11.57;;;10.70;79.60;;;;;;5037727;28;20021;-83
2022/12/04 10:37:14;;;;;;;15.10;10.20;;;10.70;79.50;;;;;;5037273;28;20087;-84
2022/12/04 10:40:24;;;;;;;17.38;11.10;;;10.70;79.60;;;;;;5037761;28;20144;-84
2022/12/04 10:43:02;;;;;;;15.27;10.30;;;10.70;79.70;;;;;;5019061;28;20129;-84
2022/12/04 10:45:27;;;;;;;17.90;11.82;;;10.60;79.70;;;;;;5034952;28;20405;-84
2022/12/04 10:47:53;;;;;;;16.45;10.80;;;10.60;79.80;;;;;;5031110;28;20030;-84
2022/12/04 10:50:23;;;;;;;17.33;11.43;;;10.60;79.90;;;;;;5037022;28;20482;-84
2022/12/04 10:52:49;;;;;;;16.33;10.55;;;10.60;79.80;;;;;;5048266;28;20017;-86
2022/12/04 10:55:26;;;;;;;18.80;11.35;;;10.60;79.90;;;;;;5034820;28;20087;-83
2022/12/04 10:57:51;;;;;;;16.48;11.02;;;10.60;79.90;;;;;;5033366;28;20034;-86
2022/12/04 11:00:37;;;;;;;15.10;10.77;;;10.60;80.00;;;;;;5034531;28;20036;-84
2022/12/04 11:03:26;;;;;;;15.77;11.18;;;10.50;79.90;;;;;;5036151;28;20033;-84
2022/12/04 11:06:03;;;;;;;15.30;10.63;;;10.60;80.00;;;;;;5034833;28;20469;-86
2022/12/04 11:08:38;;;;;;;16.33;11.43;;;10.60;80.00;;;;;;5033987;28;20053;-85
2022/12/04 11:11:15;;;;;;;15.40;10.68;;;10.60;80.00;;;;;;5029776;28;20029;-83
2022/12/04 11:13:41;;;;;;;15.50;10.63;;;10.60;80.00;;;;;;5032726;28;20037;-83
2022/12/04 11:16:23;;;;;;;15.80;11.02;;;10.60;80.00;;;;;;5030133;28;20068;-81
2022/12/04 11:18:49;;;;;;;24.27;12.43;;;10.60;80.00;;;;;;5020181;28;20044;-84
2022/12/04 11:21:21;;;;;;;15.95;11.48;;;10.50;79.90;;;;;;5026958;28;20441;-83
2022/12/04 11:23:49;;;;;;;17.10;12.30;;;10.50;80.00;;;;;;5036227;28;20022;-84
2022/12/04 11:26:17;;;;;;;15.68;10.75;;;10.50;79.90;;;;;;5034414;28;20028;-83
2022/12/04 11:28:49;;;;;;;16.40;11.80;;;10.50;79.90;;;;;;5034929;28;20024;-82
2022/12/04 11:31:18;;;;;;;16.38;10.90;;;10.50;79.90;;;;;;5034573;28;20033;-82
2022/12/04 11:33:52;;;;;;;17.67;12.15;;;10.60;80.00;;;;;;5033905;28;20509;-84
2022/12/04 11:36:27;;;;;;;16.45;11.32;;;10.60;79.90;;;;;;5030278;28;20509;-85
2022/12/04 11:39:04;;;;;;;16.70;11.27;;;10.60;79.90;;;;;;5026300;28;20026;-84
2022/12/04 11:41:31;;;;;;;16.80;11.40;;;10.60;79.90;;;;;;5028161;28;20055;-82
2022/12/04 11:43:57;;;;;;;15.68;11.25;;;10.50;79.80;;;;;;5032355;28;20049;-85
2022/12/04 11:46:26;;;;;;;16.35;12.13;;;10.50;79.90;;;;;;5032532;28;20026;-84
2022/12/04 11:48:52;;;;;;;17.95;11.75;;;10.50;79.80;;;;;;5032859;28;20029;-82
2022/12/04 11:51:46;;;;;;;17.70;11.80;;;10.50;79.80;;;;;;5033184;28;20544;-84
2022/12/04 11:54:22;;;;;;;16.75;11.90;;;10.50;79.80;;;;;;5031918;28;20040;-85
2022/12/04 11:57:02;;;;;;;17.50;11.75;;;10.60;79.80;;;;;;5031726;28;20481;-83
2022/12/04 11:59:50;;;;;;;17.42;11.55;;;10.50;79.70;;;;;;5032932;28;20025;-81
2022/12/04 12:02:28;;;;;;;16.88;11.23;;;10.50;79.80;;;;;;5030992;28;20072;-82
2022/12/04 12:05:15;;;;;;;16.15;11.25;;;10.50;79.80;;;;;;5032579;28;20074;-83
2022/12/04 12:08:09;;;;;;;17.13;11.45;;;10.50;79.80;;;;;;5029851;28;20448;-82
2022/12/04 12:10:57;;;;;;;17.25;11.77;;;10.50;79.70;;;;;;5023747;28;20508;-83
2022/12/04 12:13:48;;;;;;;18.33;12.50;;;10.50;79.80;;;;;;5033249;28;20397;-85
2022/12/04 12:16:25;;;;;;;17.65;12.18;;;10.50;79.70;;;;;;5030336;28;20063;-82
2022/12/04 12:19:12;;;;;;;16.75;12.00;;;10.50;79.70;;;;;;5031374;28;20021;-85
2022/12/04 12:21:55;;;;;;;16.80;11.75;;;10.60;79.70;;;;;;5031979;28;20033;-85
2022/12/04 12:24:28;;;;;;;16.70;11.88;;;10.50;79.70;;;;;;5031301;28;20033;-83
2022/12/04 12:27:16;;;;;;;16.98;11.40;;;10.50;79.70;;;;;;5031466;28;20029;-84
2022/12/04 12:29:50;;;;;;;17.17;11.63;;;10.50;79.70;;;;;;5031543;28;20049;-83
2022/12/04 12:32:34;;;;;;;18.25;12.48;;;10.50;79.70;;;;;;5033165;28;20022;-83
2022/12/04 12:35:00;;;;;;;18.15;12.73;;;10.50;79.70;;;;;;5035696;28;20025;-84
2022/12/04 12:38:14;;;;;;;18.30;11.82;;;10.50;79.70;;;;;;5037578;28;20026;-83
2022/12/04 12:40:43;;;;;;;15.98;11.70;;;10.60;80.20;;;;;;5038016;28;20120;-84
2022/12/04 12:43:26;;;;;;;16.92;12.32;;;10.60;79.80;;;;;;5040291;28;20044;-84
2022/12/04 12:45:57;;;;;;;17.00;11.75;;;10.60;79.70;;;;;;5034066;28;20021;-84
2022/12/04 12:48:51;;;;;;;16.90;12.00;;;10.60;79.70;;;;;;5054138;28;20033;-84
2022/12/04 12:51:32;;;;;;;16.17;11.23;;;10.50;79.60;;;;;;5035393;28;20084;-81
2022/12/04 12:54:21;;;;;;;17.95;11.63;;;10.50;79.70;;;;;;5025052;28;20065;-81
2022/12/04 12:56:52;;;;;;;16.50;11.85;;;10.50;79.70;;;;;;5029500;28;20103;-83
2022/12/04 12:59:21;;;;;;;20.17;12.50;;;10.50;79.70;;;;;;5038240;28;20371;-82
2022/12/04 13:02:10;;;;;;;18.42;12.90;;;10.50;79.90;;;;;;5042379;28;20029;-81